Tipanuk, Idaho
Current Conditions -  °F | °C
As of 7:58 AM on Friday 24 Oct 2014 (Local Time) from KMUO Reporting Station
Overcast Overcast  
Wind Chill: 50°   Ceiling: 11000
Heat Index: 50°   Visibility: 10mi
Dew Point: 50°   Wind: 3mph
Humidity: 100%   Direction: 100°E
Pressure: 30.09"   Gusts: NA
Location:  43.2609°N, 115.781°W
Report Text: KMUO 241358Z AUTO 10003KT 10SM OVC110 10/10 A3009 RMK AO2 SLP186 T01000100
Loading
Personal Weather Stations






























Interactive Weather Map
Tropical Storm Tracking
New forecast layout! Learn more

10-Day Weather Forecast

Advertisements
Track Severe Weather on mobile